createdAt,value
2022-10-16T00:00:07.756Z,0.9
2022-10-16T00:01:16.066Z,0.9
2022-10-16T00:02:24.420Z,0.9
2022-10-16T00:03:32.916Z,0.8
2022-10-16T00:04:41.221Z,0.8
2022-10-16T00:05:49.585Z,0.8
2022-10-16T00:06:58.080Z,1.2
2022-10-16T00:08:06.397Z,1.2
2022-10-16T00:09:14.713Z,1.2
2022-10-16T00:10:23.234Z,0.9
2022-10-16T00:11:31.567Z,0.9
2022-10-16T00:12:39.896Z,0.9
2022-10-16T00:13:48.412Z,1
2022-10-16T00:14:56.729Z,1
2022-10-16T00:16:05.045Z,1
2022-10-16T00:17:13.562Z,1
2022-10-16T00:18:21.906Z,1
2022-10-16T00:19:30.213Z,1
2022-10-16T00:20:38.734Z,1.1
2022-10-16T00:21:47.086Z,1.1
2022-10-16T00:22:55.373Z,1.1
2022-10-16T00:24:03.896Z,1.3
2022-10-16T00:25:12.207Z,1.3
2022-10-16T00:26:20.529Z,1.3
2022-10-16T00:27:29.063Z,1.1
2022-10-16T00:28:37.427Z,1.1
2022-10-16T00:29:45.705Z,1.1
2022-10-16T00:30:54.221Z,1
2022-10-16T00:32:02.543Z,1
2022-10-16T00:33:10.867Z,1
2022-10-16T00:34:19.386Z,1.2
2022-10-16T00:35:27.713Z,1.2
2022-10-16T00:36:36.037Z,1.2
2022-10-16T00:37:44.575Z,1.2
2022-10-16T00:38:52.898Z,1.2
2022-10-16T00:40:01.192Z,1.2
2022-10-16T00:41:09.720Z,1.2
2022-10-16T00:42:18.036Z,1.2
2022-10-16T00:43:26.361Z,1.2
2022-10-16T00:44:34.884Z,1.1
2022-10-16T00:45:43.195Z,1.1
2022-10-16T00:46:51.519Z,1.1
2022-10-16T00:48:00.123Z,0.9
2022-10-16T00:49:08.362Z,0.9
2022-10-16T00:50:16.676Z,0.9
2022-10-16T00:51:25.206Z,1.1
2022-10-16T00:52:33.513Z,1.1
2022-10-16T00:53:41.856Z,1.1
2022-10-16T00:54:50.347Z,1.1
2022-10-16T00:55:58.677Z,1.1
2022-10-16T00:57:07.087Z,1.1
2022-10-16T00:58:15.559Z,1.4
2022-10-16T00:59:23.852Z,1.4
2022-10-16T01:00:32.164Z,1.4
2022-10-16T01:01:40.698Z,1
2022-10-16T01:02:49.005Z,1
2022-10-16T01:03:57.317Z,1
2022-10-16T01:05:05.839Z,1
2022-10-16T01:06:14.178Z,1
2022-10-16T01:07:22.564Z,1
2022-10-16T01:08:30.998Z,0.9
2022-10-16T01:09:39.347Z,0.9
2022-10-16T01:10:47.632Z,0.9
2022-10-16T01:11:56.163Z,1.1
2022-10-16T01:13:04.472Z,1.1
2022-10-16T01:14:12.785Z,1.1
2022-10-16T01:15:21.300Z,1
2022-10-16T01:16:29.647Z,1
2022-10-16T01:17:37.957Z,1
2022-10-16T01:18:46.482Z,1.2
2022-10-16T01:19:54.796Z,1.2
2022-10-16T01:21:03.112Z,1.2
2022-10-16T01:22:11.649Z,1
2022-10-16T01:23:19.957Z,1
2022-10-16T01:24:28.267Z,1
2022-10-16T01:25:36.813Z,0.8
2022-10-16T01:26:45.126Z,0.8
2022-10-16T01:27:53.426Z,0.8
2022-10-16T01:29:02.015Z,0.9
2022-10-16T01:30:10.257Z,0.9
2022-10-16T01:31:18.594Z,0.9
2022-10-16T01:32:27.115Z,1
2022-10-16T01:33:35.426Z,1
2022-10-16T01:34:43.729Z,1
2022-10-16T01:35:52.257Z,0.8
2022-10-16T01:37:00.578Z,0.8
2022-10-16T01:38:08.892Z,0.8
2022-10-16T01:39:17.409Z,0.8
2022-10-16T01:40:25.725Z,0.8
2022-10-16T01:41:34.101Z,0.8
2022-10-16T01:42:42.609Z,1
2022-10-16T01:43:50.929Z,1
2022-10-16T01:44:59.252Z,1
2022-10-16T01:46:07.772Z,0.9
2022-10-16T01:47:16.099Z,0.9
2022-10-16T01:48:24.421Z,0.9
2022-10-16T01:49:32.940Z,0.8
2022-10-16T01:50:41.269Z,0.8
2022-10-16T01:51:49.613Z,0.8
2022-10-16T01:52:58.110Z,0.7
2022-10-16T01:54:06.416Z,0.7
2022-10-16T01:55:14.742Z,0.7
2022-10-16T01:56:23.282Z,0.8
2022-10-16T01:57:31.616Z,0.8
2022-10-16T01:58:39.911Z,0.8
2022-10-16T01:59:48.429Z,0.8
2022-10-16T02:00:56.840Z,0.8
2022-10-16T02:02:05.061Z,0.8
2022-10-16T02:03:13.572Z,0.7
2022-10-16T02:04:21.897Z,0.7
2022-10-16T02:05:30.204Z,0.7
2022-10-16T02:06:38.745Z,0.7
2022-10-16T02:07:47.053Z,0.7
2022-10-16T02:08:55.366Z,0.7
2022-10-16T02:10:03.887Z,0.8
2022-10-16T02:11:12.209Z,0.8
2022-10-16T02:12:20.522Z,0.8
2022-10-16T02:13:29.086Z,0.8
2022-10-16T02:14:37.360Z,0.8
2022-10-16T02:15:45.669Z,0.8
2022-10-16T02:16:54.199Z,0.8
2022-10-16T02:18:02.534Z,0.8
2022-10-16T02:19:10.857Z,0.8
2022-10-16T02:20:19.402Z,0.7
2022-10-16T02:21:27.744Z,0.7
2022-10-16T02:22:36.058Z,0.7
2022-10-16T02:23:44.576Z,0.8
2022-10-16T02:24:52.899Z,0.8
2022-10-16T02:26:01.235Z,0.8
2022-10-16T02:27:09.743Z,1
2022-10-16T02:28:18.052Z,1
2022-10-16T02:29:26.402Z,1
2022-10-16T02:30:34.904Z,1
2022-10-16T02:31:43.221Z,1
2022-10-16T02:32:51.560Z,1
2022-10-16T02:34:00.088Z,1.1
2022-10-16T02:35:08.383Z,1.1
2022-10-16T02:36:16.726Z,1.1
2022-10-16T02:37:25.250Z,1
2022-10-16T02:38:33.569Z,1
2022-10-16T02:39:41.876Z,1
2022-10-16T02:40:50.413Z,1.1
2022-10-16T02:41:58.738Z,1.1
2022-10-16T02:43:07.060Z,1.1
2022-10-16T02:44:15.567Z,1.1
2022-10-16T02:45:23.915Z,1.1
2022-10-16T02:46:32.201Z,1.1
2022-10-16T02:47:40.733Z,1.1
2022-10-16T02:48:49.042Z,1.1
2022-10-16T02:49:57.355Z,1.1
2022-10-16T02:51:05.871Z,0.8
2022-10-16T02:52:14.188Z,0.8
2022-10-16T02:53:22.503Z,0.8
2022-10-16T02:54:31.027Z,0.6
2022-10-16T02:55:39.348Z,0.6
2022-10-16T02:56:47.661Z,0.6
2022-10-16T02:57:56.182Z,0.5
2022-10-16T02:59:04.502Z,0.5
2022-10-16T03:00:12.820Z,0.5
2022-10-16T03:01:21.433Z,0.4
2022-10-16T03:02:29.657Z,0.4
2022-10-16T03:03:37.980Z,0.4
2022-10-16T03:04:46.535Z,0.3
2022-10-16T03:05:54.862Z,0.3
2022-10-16T03:07:03.168Z,0.3
2022-10-16T03:08:11.708Z,0.1
2022-10-16T03:09:20.020Z,0.1
2022-10-16T03:10:28.358Z,0.1
2022-10-16T03:11:36.883Z,0.2
2022-10-16T03:12:45.221Z,0.2
2022-10-16T03:13:53.526Z,0.2
2022-10-16T03:15:02.065Z,0.3
2022-10-16T03:16:10.404Z,0.3
2022-10-16T03:17:18.737Z,0.3
2022-10-16T03:18:27.227Z,0.2
2022-10-16T03:19:35.554Z,0.2
2022-10-16T03:20:43.863Z,0.2
2022-10-16T03:21:52.407Z,0.2
2022-10-16T03:23:00.716Z,0.2
2022-10-16T03:24:09.038Z,0.2
2022-10-16T03:25:17.576Z,0.3
2022-10-16T03:26:25.890Z,0.3
2022-10-16T03:27:34.212Z,0.3
2022-10-16T03:28:42.786Z,0.3
2022-10-16T03:29:51.076Z,0.3
2022-10-16T03:30:59.397Z,0.3
2022-10-16T03:32:07.933Z,0.4
2022-10-16T03:33:16.278Z,0.4
2022-10-16T03:34:24.572Z,0.4
2022-10-16T03:35:33.102Z,0.4
2022-10-16T03:36:41.414Z,0.4
2022-10-16T03:37:49.731Z,0.4
2022-10-16T03:38:58.275Z,0.3
2022-10-16T03:40:06.612Z,0.3
2022-10-16T03:41:14.924Z,0.3
2022-10-16T03:42:23.441Z,0.4
2022-10-16T03:43:31.759Z,0.4
2022-10-16T03:44:40.108Z,0.4
2022-10-16T03:45:48.622Z,0.4
2022-10-16T03:46:56.932Z,0.4
2022-10-16T03:48:05.244Z,0.4
2022-10-16T03:49:13.806Z,0.4
2022-10-16T03:50:22.099Z,0.4
2022-10-16T03:51:30.410Z,0.4
2022-10-16T03:52:38.936Z,0.5
2022-10-16T03:53:47.240Z,0.5
2022-10-16T03:54:55.577Z,0.5
2022-10-16T03:56:04.092Z,0.4
2022-10-16T03:57:12.413Z,0.4
2022-10-16T03:58:20.728Z,0.4
2022-10-16T03:59:29.250Z,0.2
2022-10-16T04:00:37.592Z,0.2
2022-10-16T04:01:45.910Z,0.2
2022-10-16T04:02:54.435Z,0.4
2022-10-16T04:04:02.752Z,0.4
2022-10-16T04:05:11.113Z,0.4
2022-10-16T04:06:19.630Z,0.3
2022-10-16T04:07:28.215Z,0.3
2022-10-16T04:08:36.250Z,0.3
2022-10-16T04:09:44.786Z,0.3
2022-10-16T04:10:53.108Z,0.3
2022-10-16T04:12:01.433Z,0.3
2022-10-16T04:13:10.037Z,0.3
2022-10-16T04:14:18.273Z,0.3
2022-10-16T04:15:26.600Z,0.3
2022-10-16T04:16:35.140Z,0.3
2022-10-16T04:17:43.455Z,0.3
2022-10-16T04:18:51.784Z,0.3
2022-10-16T04:20:00.310Z,0.4
2022-10-16T04:21:08.652Z,0.4
2022-10-16T04:22:16.987Z,0.4
2022-10-16T04:23:25.489Z,0.3
2022-10-16T04:24:33.849Z,0.3
2022-10-16T04:25:42.181Z,0.3
2022-10-16T04:26:50.733Z,0.4
2022-10-16T04:27:59.050Z,0.4
2022-10-16T04:29:07.397Z,0.4
2022-10-16T04:30:15.926Z,0.3
2022-10-16T04:31:24.246Z,0.3
2022-10-16T04:32:32.570Z,0.3
2022-10-16T04:33:41.094Z,0.3
2022-10-16T04:34:49.430Z,0.3
